ASB weather

Ashgabat International Airport
Ashgabat, Ahal, Turkmenistan

Public forecast

Using degrees Celsius for public forecast. Weather courtesy of forecast.io.

METAR (pilot weather report)

Retrieved 2019/06/27 05:00 UTC (22 minutes ago):

UTAA 270500Z 30016G26KT 9999 NSC 35/13 Q1008 R88/CLRD70 NOSIG

TAF (pilot weather forecast)

Forecast is more than 12 hours old.

Retrieved 2019/06/26 00:00 UTC (1 day ago):

TAF UTAA 262230Z 2700/2724 28018KT 6000 SCT050CB TX40/2711Z TEMPO 2700/2703 21014KT PROB30 TEMPO 2710/2718 -TSRA